Terminal Aerodrome Forecast
Issued by NWS

Home | Current Version | Previous Version | Text Only | Print | Product List | Glossary On
Versions: 1 2 3 4 5 6 7 8 9 10 11 12 13 14
000
FTUS43 KMQT 231738
TAFCMX
TAF
KCMX 231738Z 2318/2418 28016G25KT P6SM FEW080
     FM240100 27011G18KT P6SM SCT080
     FM240300 28009KT P6SM BKN050
     FM241100 29007KT P6SM BKN025=

USA.gov is the U.S. government's official web portal to all federal, state and local government web resources and services.